createdAt,value
2022-12-18T00:01:28.751Z,-1.00
2022-12-18T00:03:57.596Z,-1.10
2022-12-18T00:06:26.180Z,-1.20
2022-12-18T00:08:52.880Z,-1.20
2022-12-18T00:11:21.700Z,-1.20
2022-12-18T00:13:49.076Z,-1.20
2022-12-18T00:16:21.189Z,-1.10
2022-12-18T00:18:48.936Z,-1.10
2022-12-18T00:21:15.939Z,-1.10
2022-12-18T00:23:44.374Z,-1.20
2022-12-18T00:26:20.633Z,-1.20
2022-12-18T00:28:47.825Z,-1.30
2022-12-18T00:31:17.034Z,-1.20
2022-12-18T00:33:43.867Z,-1.20
2022-12-18T00:36:14.329Z,-1.20
2022-12-18T00:38:42.140Z,-1.20
2022-12-18T00:41:10.356Z,-1.30
2022-12-18T00:43:38.627Z,-1.40
2022-12-18T00:46:06.044Z,-1.50
2022-12-18T00:48:33.550Z,-1.40
2022-12-18T00:51:00.153Z,-1.40
2022-12-18T00:53:26.841Z,-1.40
2022-12-18T00:55:53.398Z,-1.50
2022-12-18T00:58:19.986Z,-1.50
2022-12-18T01:00:46.789Z,-1.40
2022-12-18T01:03:15.123Z,-1.40
2022-12-18T01:05:42.966Z,-1.50
2022-12-18T01:08:10.264Z,-1.50
2022-12-18T01:10:37.139Z,-1.50
2022-12-18T01:13:03.815Z,-1.50
2022-12-18T01:15:30.457Z,-1.50
2022-12-18T01:17:57.070Z,-1.40
2022-12-18T01:20:23.707Z,-1.40
2022-12-18T01:22:50.337Z,-1.50
2022-12-18T01:25:17.045Z,-1.40
2022-12-18T01:27:43.730Z,-1.50
2022-12-18T01:30:10.878Z,-1.40
2022-12-18T01:32:37.499Z,-1.50
2022-12-18T01:35:04.949Z,-1.40
2022-12-18T01:37:31.575Z,-1.50
2022-12-18T01:39:58.203Z,-1.50
2022-12-18T01:42:26.471Z,-1.50
2022-12-18T01:45:01.079Z,-1.50
2022-12-18T01:47:39.241Z,-1.50
2022-12-18T01:50:13.908Z,-1.50
2022-12-18T01:52:47.701Z,-1.50
2022-12-18T01:55:17.461Z,-1.50
2022-12-18T01:57:44.130Z,-1.50
2022-12-18T02:00:15.924Z,-1.60
2022-12-18T02:02:44.468Z,-1.60
2022-12-18T02:05:13.801Z,-1.60
2022-12-18T02:08:04.787Z,-1.60
2022-12-18T02:11:03.372Z,-1.60
2022-12-18T02:13:38.223Z,-1.60
2022-12-18T02:16:20.706Z,-1.60
2022-12-18T02:18:51.964Z,-1.70
2022-12-18T02:21:33.345Z,-1.70
2022-12-18T02:24:27.853Z,-1.70
2022-12-18T02:27:05.944Z,-1.80
2022-12-18T02:29:45.914Z,-1.70
2022-12-18T02:32:17.687Z,-1.70
2022-12-18T02:34:45.297Z,-1.70
2022-12-18T02:37:16.937Z,-1.70
2022-12-18T02:39:47.058Z,-1.70
2022-12-18T02:42:14.067Z,-1.70
2022-12-18T02:44:48.006Z,-1.70
2022-12-18T02:47:17.700Z,-1.70
2022-12-18T02:50:03.231Z,-1.70
2022-12-18T02:52:48.664Z,-1.80
2022-12-18T02:55:29.592Z,-1.80
2022-12-18T02:57:57.598Z,-1.80
2022-12-18T03:00:32.680Z,-1.90
2022-12-18T03:03:20.125Z,-1.90
2022-12-18T03:05:54.889Z,-1.90
2022-12-18T03:08:31.040Z,-2.00
2022-12-18T03:11:12.555Z,-2.00
2022-12-18T03:13:42.222Z,-2.10
2022-12-18T03:16:13.199Z,-2.10
2022-12-18T03:18:47.083Z,-2.10
2022-12-18T03:21:18.420Z,-2.10
2022-12-18T03:23:50.529Z,-2.10
2022-12-18T03:26:20.819Z,-2.20
2022-12-18T03:28:54.211Z,-2.20
2022-12-18T03:31:24.145Z,-2.20
2022-12-18T03:33:56.642Z,-2.20
2022-12-18T03:36:24.115Z,-2.30
2022-12-18T03:38:51.129Z,-2.30
2022-12-18T03:41:33.358Z,-2.30
2022-12-18T03:44:29.300Z,-2.30
2022-12-18T03:47:05.007Z,-2.40
2022-12-18T03:49:43.939Z,-2.40
2022-12-18T03:52:25.226Z,-2.40
2022-12-18T03:54:53.076Z,-2.40
2022-12-18T03:57:22.526Z,-2.50
2022-12-18T03:59:56.578Z,-2.50
2022-12-18T04:02:25.612Z,-2.60
2022-12-18T04:04:59.174Z,-2.60
2022-12-18T04:07:26.165Z,-2.70
2022-12-18T04:09:57.226Z,-2.70
2022-12-18T04:12:27.929Z,-2.70
2022-12-18T04:14:54.522Z,-2.80
2022-12-18T04:17:21.262Z,-2.80
2022-12-18T04:19:47.958Z,-2.80
2022-12-18T04:22:14.614Z,-2.80
2022-12-18T04:24:41.235Z,-2.80
2022-12-18T04:27:08.167Z,-2.80
2022-12-18T04:29:34.822Z,-2.80
2022-12-18T04:32:01.550Z,-2.90
2022-12-18T04:34:28.374Z,-2.90
2022-12-18T04:36:54.960Z,-2.90
2022-12-18T04:39:21.621Z,-3.00
2022-12-18T04:41:48.338Z,-3.00
2022-12-18T04:44:15.407Z,-3.00
2022-12-18T04:46:42.489Z,-3.00
2022-12-18T04:49:11.301Z,-3.00
2022-12-18T04:51:38.246Z,-3.00
2022-12-18T04:54:05.041Z,-3.00
2022-12-18T04:56:32.667Z,-3.00
2022-12-18T04:58:59.314Z,-3.10
2022-12-18T05:01:30.935Z,-3.10
2022-12-18T05:04:01.309Z,-3.10
2022-12-18T05:06:27.978Z,-3.10
2022-12-18T05:08:54.586Z,-3.10
2022-12-18T05:11:21.183Z,-3.10
2022-12-18T05:13:47.784Z,-3.10
2022-12-18T05:16:15.353Z,-3.20
2022-12-18T05:18:42.534Z,-3.20
2022-12-18T05:21:09.430Z,-3.20
2022-12-18T05:23:37.023Z,-3.20
2022-12-18T05:26:06.753Z,-3.20
2022-12-18T05:28:35.640Z,-3.30
2022-12-18T05:31:04.019Z,-3.30
2022-12-18T05:33:33.907Z,-3.30
2022-12-18T05:36:02.904Z,-3.30
2022-12-18T05:38:30.671Z,-3.30
2022-12-18T05:40:58.194Z,-3.30
2022-12-18T05:43:26.162Z,-3.30
2022-12-18T05:45:53.766Z,-3.30
2022-12-18T05:48:21.051Z,-3.20
2022-12-18T05:50:48.895Z,-3.20
2022-12-18T05:53:20.183Z,-3.30
2022-12-18T05:55:48.067Z,-3.30
2022-12-18T05:58:15.600Z,-3.30
2022-12-18T06:00:45.232Z,-3.30
2022-12-18T06:03:13.149Z,-3.30
2022-12-18T06:05:45.627Z,-3.30
2022-12-18T06:08:14.013Z,-3.30
2022-12-18T06:10:41.252Z,-3.40
2022-12-18T06:13:08.710Z,-3.40
2022-12-18T06:15:38.426Z,-3.40
2022-12-18T06:18:05.096Z,-3.50
2022-12-18T06:20:33.586Z,-3.50
2022-12-18T06:23:00.785Z,-3.50
2022-12-18T06:25:27.393Z,-3.50
2022-12-18T06:27:54.049Z,-3.50
2022-12-18T06:30:21.218Z,-3.50
2022-12-18T06:32:53.133Z,-3.60
2022-12-18T06:35:22.977Z,-3.60
2022-12-18T06:37:49.701Z,-3.50
2022-12-18T06:40:16.578Z,-3.50
2022-12-18T06:42:43.198Z,-3.60
2022-12-18T06:45:10.309Z,-3.60
2022-12-18T06:47:36.924Z,-3.60
2022-12-18T06:50:03.921Z,-3.60
2022-12-18T06:52:33.235Z,-3.60
2022-12-18T06:55:00.129Z,-3.70
2022-12-18T06:57:26.709Z,-3.70
2022-12-18T06:59:53.267Z,-3.70
2022-12-18T07:02:20.006Z,-3.70
2022-12-18T07:04:46.690Z,-3.70
2022-12-18T07:07:13.296Z,-3.70
2022-12-18T07:09:39.945Z,-3.70
2022-12-18T07:12:07.726Z,-3.70
2022-12-18T07:14:34.534Z,-3.70
2022-12-18T07:17:01.323Z,-3.70
2022-12-18T07:19:28.217Z,-3.70
2022-12-18T07:21:55.952Z,-3.70
2022-12-18T07:24:22.642Z,-3.70
2022-12-18T07:26:49.378Z,-3.70
2022-12-18T07:29:16.136Z,-3.70
2022-12-18T07:31:43.160Z,-3.70
2022-12-18T07:34:13.911Z,-3.70
2022-12-18T07:36:40.518Z,-3.70
2022-12-18T07:39:07.191Z,-3.60
2022-12-18T07:41:33.804Z,-3.70
2022-12-18T07:44:00.365Z,-3.70
2022-12-18T07:46:26.953Z,-3.70
2022-12-18T07:48:53.627Z,-3.70
2022-12-18T07:51:20.509Z,-3.70
2022-12-18T07:53:49.392Z,-3.70
2022-12-18T07:56:28.559Z,-3.60
2022-12-18T07:58:56.655Z,-3.60
2022-12-18T08:01:23.477Z,-3.60
2022-12-18T08:03:51.854Z,-3.60
2022-12-18T08:06:19.381Z,-3.60
2022-12-18T08:08:49.184Z,-3.50
2022-12-18T08:11:16.609Z,-3.50
2022-12-18T08:13:43.423Z,-3.50
2022-12-18T08:16:10.388Z,-3.50
2022-12-18T08:18:38.040Z,-3.40
2022-12-18T08:21:12.781Z,-3.40
2022-12-18T08:23:43.136Z,-3.30
2022-12-18T08:26:14.410Z,-3.30
2022-12-18T08:28:41.781Z,-3.30
2022-12-18T08:31:09.460Z,-3.20
2022-12-18T08:33:38.764Z,-3.10
2022-12-18T08:36:06.551Z,-3.10
2022-12-18T08:38:34.064Z,-3.00
2022-12-18T08:41:05.606Z,-3.00
2022-12-18T08:43:50.604Z,-2.90
2022-12-18T08:46:18.764Z,-2.80
2022-12-18T08:48:45.507Z,-2.80
2022-12-18T08:51:12.158Z,-2.80
2022-12-18T08:53:39.625Z,-2.70
2022-12-18T08:56:07.178Z,-2.70
2022-12-18T08:58:33.737Z,-2.70
2022-12-18T09:01:05.642Z,-2.60
2022-12-18T09:03:33.509Z,-2.60
2022-12-18T09:06:00.448Z,-2.60
2022-12-18T09:08:27.458Z,-2.60
2022-12-18T09:10:54.358Z,-2.50
2022-12-18T09:13:21.291Z,-2.40
2022-12-18T09:15:51.326Z,-2.30
2022-12-18T09:18:20.137Z,-2.30
2022-12-18T09:20:47.502Z,-2.20
2022-12-18T09:23:14.502Z,-2.30
2022-12-18T09:25:41.682Z,-2.30
2022-12-18T09:28:15.633Z,-2.20
2022-12-18T09:30:50.092Z,-2.10
2022-12-18T09:33:17.951Z,-2.10
2022-12-18T09:35:46.089Z,-2.00
2022-12-18T09:38:15.231Z,-1.90
2022-12-18T09:40:53.737Z,-1.90
2022-12-18T09:43:30.977Z,-1.90
2022-12-18T09:46:06.287Z,-1.80
2022-12-18T09:48:37.426Z,-1.70
2022-12-18T09:51:12.889Z,-1.60
2022-12-18T09:53:42.366Z,-1.60
2022-12-18T09:56:17.352Z,-1.60
2022-12-18T09:58:56.578Z,-1.50
2022-12-18T10:01:24.876Z,-1.40
2022-12-18T10:03:54.906Z,-1.30
2022-12-18T10:06:32.909Z,-1.20
2022-12-18T10:09:05.710Z,-1.20
2022-12-18T10:11:57.042Z,-1.20
2022-12-18T10:14:37.291Z,-1.10
2022-12-18T10:17:13.895Z,-1.10
2022-12-18T10:19:50.184Z,-1.10
2022-12-18T10:22:28.356Z,-1.00
2022-12-18T10:25:20.815Z,-1.00
2022-12-18T10:27:47.752Z,-1.00
2022-12-18T10:30:17.307Z,-0.90
2022-12-18T10:32:44.154Z,-0.90
2022-12-18T10:35:23.087Z,-0.80
2022-12-18T10:38:06.274Z,-0.70
2022-12-18T10:40:36.847Z,-0.70
2022-12-18T10:43:15.451Z,-0.70
2022-12-18T10:45:42.726Z,-0.60
2022-12-18T10:48:22.855Z,-0.50
2022-12-18T10:53:39.897Z,-0.40
2022-12-18T10:56:07.722Z,-0.40
2022-12-18T10:58:35.534Z,-0.30
2022-12-18T11:01:14.481Z,-0.20
2022-12-18T11:03:45.395Z,-0.40
2022-12-18T11:06:17.716Z,-0.20
2022-12-18T11:08:57.678Z,-0.30
2022-12-18T11:11:25.338Z,-0.20
2022-12-18T11:14:05.165Z,-0.20
2022-12-18T11:16:57.927Z,-0.20
2022-12-18T11:19:34.673Z,-0.10
2022-12-18T11:22:04.969Z,-0.10
2022-12-18T11:24:36.709Z,0.00
2022-12-18T11:27:06.077Z,0.00
2022-12-18T11:29:36.083Z,0.10
2022-12-18T11:32:29.350Z,0.10
2022-12-18T11:35:43.910Z,0.00
2022-12-18T11:38:26.243Z,0.10
2022-12-18T11:41:17.084Z,0.10
2022-12-18T11:43:55.113Z,0.20
2022-12-18T11:46:34.728Z,0.20
2022-12-18T11:49:23.375Z,0.20
2022-12-18T11:51:53.241Z,0.30
2022-12-18T11:54:19.895Z,0.30
2022-12-18T11:57:01.384Z,0.30
2022-12-18T11:59:48.042Z,0.30
2022-12-18T12:02:23.259Z,0.40
2022-12-18T12:04:57.855Z,0.40
2022-12-18T12:07:52.425Z,0.50
2022-12-18T12:10:34.034Z,0.40
2022-12-18T12:13:25.561Z,0.50
2022-12-18T12:16:17.612Z,0.60
2022-12-18T12:19:06.139Z,0.50
2022-12-18T12:21:42.540Z,0.50
2022-12-18T12:24:25.362Z,0.60
2022-12-18T12:27:26.579Z,0.60
2022-12-18T12:30:00.691Z,0.60
2022-12-18T12:32:48.916Z,0.70
2022-12-18T12:36:00.745Z,0.70
2022-12-18T12:38:29.538Z,0.70
2022-12-18T12:41:04.920Z,0.70
2022-12-18T12:46:37.691Z,0.80
2022-12-18T12:49:10.889Z,0.90
2022-12-18T12:51:41.063Z,0.80
2022-12-18T12:54:18.368Z,0.80
2022-12-18T12:57:10.408Z,0.90
2022-12-18T12:59:48.327Z,0.90
2022-12-18T13:02:52.504Z,0.90
2022-12-18T13:05:26.850Z,0.90
2022-12-18T13:08:07.644Z,0.80
2022-12-18T13:10:40.993Z,0.90
2022-12-18T13:13:11.516Z,0.90
2022-12-18T13:15:51.190Z,0.90
2022-12-18T13:18:23.406Z,1.00
2022-12-18T13:20:58.499Z,1.00
2022-12-18T13:23:35.181Z,1.00
2022-12-18T13:26:10.914Z,1.10
2022-12-18T13:28:46.903Z,1.10
2022-12-18T13:31:14.655Z,1.20
2022-12-18T13:34:24.047Z,1.20
2022-12-18T13:36:34.650Z,1.20
2022-12-18T13:39:21.240Z,1.20
2022-12-18T13:42:50.697Z,1.10
2022-12-18T13:45:41.133Z,1.10
2022-12-18T13:48:17.221Z,1.20
2022-12-18T13:50:48.895Z,1.20
2022-12-18T13:53:25.768Z,1.10
2022-12-18T13:55:52.853Z,1.10
2022-12-18T13:58:19.903Z,1.10
2022-12-18T14:00:46.576Z,1.00
2022-12-18T14:03:22.635Z,1.10
2022-12-18T14:06:09.842Z,1.00
2022-12-18T14:08:41.405Z,1.00
2022-12-18T14:11:18.847Z,1.00
2022-12-18T14:13:47.669Z,1.10
2022-12-18T14:16:17.575Z,1.10
2022-12-18T14:18:53.260Z,1.00
2022-12-18T14:21:24.666Z,1.00
2022-12-18T14:24:14.196Z,1.10
2022-12-18T14:26:41.957Z,0.90
2022-12-18T14:29:29.477Z,0.90
2022-12-18T14:32:11.766Z,1.00
2022-12-18T14:34:41.839Z,1.00
2022-12-18T14:37:12.736Z,1.10
2022-12-18T14:39:39.737Z,1.20
2022-12-18T14:42:06.373Z,1.20
2022-12-18T14:44:44.255Z,1.20
2022-12-18T14:47:18.307Z,1.20
2022-12-18T14:49:45.415Z,1.20
2022-12-18T14:52:30.139Z,1.20
2022-12-18T14:54:56.749Z,1.20
2022-12-18T14:57:36.851Z,1.10
2022-12-18T15:00:12.698Z,1.20
2022-12-18T15:02:39.651Z,1.20
2022-12-18T15:05:25.594Z,1.20
2022-12-18T15:07:54.442Z,1.10
2022-12-18T15:10:24.051Z,1.20
2022-12-18T15:12:57.679Z,1.10
2022-12-18T15:15:37.019Z,1.10
2022-12-18T15:18:09.681Z,1.10
2022-12-18T15:20:46.310Z,1.10
2022-12-18T15:23:20.846Z,1.10
2022-12-18T15:26:07.004Z,1.10
2022-12-18T15:28:39.578Z,1.10
2022-12-18T15:31:22.350Z,1.10
2022-12-18T15:33:55.116Z,1.10
2022-12-18T15:36:26.298Z,1.10
2022-12-18T15:38:55.489Z,1.10
2022-12-18T15:41:26.416Z,1.10
2022-12-18T15:43:53.926Z,1.00
2022-12-18T15:46:25.809Z,1.10
2022-12-18T15:48:59.608Z,1.10
2022-12-18T15:51:34.448Z,1.20
2022-12-18T15:54:04.787Z,1.10
2022-12-18T15:56:50.451Z,1.10
2022-12-18T15:59:21.616Z,1.10
2022-12-18T16:01:51.292Z,1.10
2022-12-18T16:04:22.910Z,1.10
2022-12-18T16:09:37.504Z,1.20
2022-12-18T16:12:04.665Z,1.20
2022-12-18T16:14:32.645Z,1.20
2022-12-18T16:17:06.871Z,1.10
2022-12-18T16:19:33.503Z,1.20
2022-12-18T16:22:00.209Z,1.20
2022-12-18T16:24:31.918Z,1.20
2022-12-18T16:27:00.832Z,1.20
2022-12-18T16:29:29.031Z,1.20
2022-12-18T16:31:56.812Z,1.20
2022-12-18T16:34:29.466Z,1.20
2022-12-18T16:37:05.631Z,1.20
2022-12-18T16:39:35.141Z,1.20
2022-12-18T16:42:05.666Z,1.30
2022-12-18T16:44:33.790Z,1.30
2022-12-18T16:47:02.699Z,1.20
2022-12-18T16:49:29.982Z,1.30
2022-12-18T16:51:56.711Z,1.30
2022-12-18T16:54:23.952Z,1.30
2022-12-18T16:56:52.178Z,1.20
2022-12-18T16:59:19.426Z,1.20
2022-12-18T17:01:47.392Z,1.20
2022-12-18T17:04:15.062Z,1.20
2022-12-18T17:06:44.099Z,1.20
2022-12-18T17:09:20.038Z,1.20
2022-12-18T17:11:46.726Z,1.20
2022-12-18T17:14:18.766Z,1.20
2022-12-18T17:16:46.486Z,1.20
2022-12-18T17:19:17.310Z,1.20
2022-12-18T17:21:45.223Z,1.20
2022-12-18T17:24:12.204Z,1.20
2022-12-18T17:26:38.950Z,1.30
2022-12-18T17:29:05.684Z,1.30
2022-12-18T17:31:32.798Z,1.30
2022-12-18T17:34:01.086Z,1.40
2022-12-18T17:36:32.239Z,1.30
2022-12-18T17:39:00.971Z,1.30
2022-12-18T17:41:28.819Z,1.40
2022-12-18T17:43:57.486Z,1.30
2022-12-18T17:46:25.805Z,1.30
2022-12-18T17:48:55.234Z,1.30
2022-12-18T17:51:21.864Z,1.30
2022-12-18T17:53:48.763Z,1.30
2022-12-18T17:56:17.875Z,1.30
2022-12-18T17:58:45.199Z,1.40
2022-12-18T18:01:17.866Z,1.40
2022-12-18T18:03:45.277Z,1.40
2022-12-18T18:06:14.934Z,1.40
2022-12-18T18:08:41.592Z,1.40
2022-12-18T18:11:36.005Z,1.40
2022-12-18T18:14:05.628Z,1.40
2022-12-18T18:16:36.145Z,1.40
2022-12-18T18:19:06.022Z,1.40
2022-12-18T18:21:33.190Z,1.40
2022-12-18T18:24:03.081Z,1.40
2022-12-18T18:26:32.129Z,1.50
2022-12-18T18:29:00.008Z,1.50
2022-12-18T18:31:30.813Z,1.50
2022-12-18T18:33:57.974Z,1.50
2022-12-18T18:36:24.993Z,1.50
2022-12-18T18:38:52.044Z,1.50
2022-12-18T18:41:19.617Z,1.60
2022-12-18T18:43:46.297Z,1.50
2022-12-18T18:46:15.002Z,1.60
2022-12-18T18:48:42.473Z,1.60
2022-12-18T18:51:21.103Z,1.60
2022-12-18T18:53:49.788Z,1.50
2022-12-18T18:59:05.285Z,1.60
2022-12-18T19:01:32.336Z,1.60
2022-12-18T19:03:59.112Z,1.60
2022-12-18T19:06:27.932Z,1.70
2022-12-18T19:08:55.853Z,1.70
2022-12-18T19:11:41.995Z,1.70
2022-12-18T19:14:11.824Z,1.70
2022-12-18T19:16:38.781Z,1.60
2022-12-18T19:19:06.210Z,1.60
2022-12-18T19:21:34.649Z,1.60
2022-12-18T19:24:02.469Z,1.60
2022-12-18T19:26:29.390Z,1.70
2022-12-18T19:29:07.796Z,1.70
2022-12-18T19:31:36.683Z,1.80
2022-12-18T19:34:06.562Z,1.80
2022-12-18T19:36:34.311Z,1.80
2022-12-18T19:39:01.757Z,1.80
2022-12-18T19:41:31.310Z,1.70
2022-12-18T19:43:59.878Z,1.80
2022-12-18T19:46:27.636Z,1.70
2022-12-18T19:48:54.238Z,1.70
2022-12-18T19:51:24.373Z,1.70
2022-12-18T19:53:56.617Z,1.70
2022-12-18T19:56:27.183Z,1.70
2022-12-18T19:58:54.925Z,1.80
2022-12-18T20:01:23.650Z,1.80
2022-12-18T20:03:52.685Z,1.70
2022-12-18T20:06:36.683Z,1.70
2022-12-18T20:09:07.205Z,1.70
2022-12-18T20:11:41.910Z,1.60
2022-12-18T20:14:10.658Z,1.60
2022-12-18T20:16:37.670Z,1.60
2022-12-18T20:19:05.086Z,1.60
2022-12-18T20:21:31.933Z,1.60
2022-12-18T20:23:59.983Z,1.60
2022-12-18T20:26:26.977Z,1.50
2022-12-18T20:28:55.132Z,1.60
2022-12-18T20:31:22.315Z,1.60
2022-12-18T20:33:51.032Z,1.50
2022-12-18T20:36:25.976Z,1.50
2022-12-18T20:38:57.154Z,1.50
2022-12-18T20:41:25.661Z,1.60
2022-12-18T20:43:54.256Z,1.60
2022-12-18T20:46:21.017Z,1.60
2022-12-18T20:48:48.210Z,1.50
2022-12-18T20:51:17.776Z,1.50
2022-12-18T20:53:45.740Z,1.50
2022-12-18T20:56:22.026Z,1.50
2022-12-18T20:58:50.297Z,1.50
2022-12-18T21:01:20.842Z,1.50
2022-12-18T21:03:48.242Z,1.60
2022-12-18T21:06:17.048Z,1.50
2022-12-18T21:08:44.302Z,1.50
2022-12-18T21:11:39.695Z,1.50
2022-12-18T21:14:16.594Z,1.50
2022-12-18T21:16:43.914Z,1.50
2022-12-18T21:19:12.819Z,1.50
2022-12-18T21:21:40.637Z,1.50
2022-12-18T21:24:08.256Z,1.50
2022-12-18T21:26:36.526Z,1.50
2022-12-18T21:29:10.404Z,1.50
2022-12-18T21:31:38.376Z,1.60
2022-12-18T21:34:07.129Z,1.50
2022-12-18T21:36:34.621Z,1.50
2022-12-18T21:39:01.437Z,1.60
2022-12-18T21:41:46.590Z,1.70
2022-12-18T21:44:18.048Z,1.70
2022-12-18T21:46:52.811Z,1.60
2022-12-18T21:49:21.981Z,1.70
2022-12-18T21:51:51.113Z,1.60
2022-12-18T21:54:18.860Z,1.70
2022-12-18T21:57:02.190Z,1.70
2022-12-18T21:59:34.451Z,1.70
2022-12-18T22:02:04.403Z,1.70
2022-12-18T22:04:31.142Z,1.80
2022-12-18T22:06:57.928Z,1.70
2022-12-18T22:09:25.282Z,1.70
2022-12-18T22:11:52.253Z,1.70
2022-12-18T22:14:19.244Z,1.70
2022-12-18T22:16:45.906Z,1.70
2022-12-18T22:19:13.411Z,1.70
2022-12-18T22:21:43.969Z,1.60
2022-12-18T22:24:21.866Z,1.60
2022-12-18T22:26:50.091Z,1.70
2022-12-18T22:29:38.165Z,1.80
2022-12-18T22:32:06.431Z,1.80
2022-12-18T22:34:36.591Z,1.90
2022-12-18T22:37:03.694Z,1.90
2022-12-18T22:39:31.290Z,1.90
2022-12-18T22:41:58.447Z,1.90
2022-12-18T22:44:25.207Z,1.90
2022-12-18T22:47:06.487Z,2.00
2022-12-18T22:49:34.796Z,2.00
2022-12-18T22:52:06.624Z,1.90
2022-12-18T22:54:33.296Z,2.00
2022-12-18T22:56:59.891Z,1.80
2022-12-18T22:59:26.507Z,1.90
2022-12-18T23:01:58.544Z,1.90
2022-12-18T23:04:34.272Z,2.00
2022-12-18T23:07:05.925Z,2.00
2022-12-18T23:09:32.916Z,1.90
2022-12-18T23:12:00.080Z,1.90
2022-12-18T23:14:27.522Z,2.00
2022-12-18T23:16:54.098Z,1.90
2022-12-18T23:19:21.578Z,1.90
2022-12-18T23:21:50.827Z,2.00
2022-12-18T23:24:17.463Z,1.90
2022-12-18T23:26:44.162Z,1.90
2022-12-18T23:29:10.791Z,2.00
2022-12-18T23:31:39.085Z,2.00
2022-12-18T23:34:07.171Z,1.90
2022-12-18T23:36:46.362Z,2.00
2022-12-18T23:39:28.800Z,2.00
2022-12-18T23:42:00.183Z,1.90
2022-12-18T23:44:27.418Z,2.00
2022-12-18T23:46:54.709Z,2.00
2022-12-18T23:49:21.428Z,2.00
2022-12-18T23:51:48.517Z,2.00
2022-12-18T23:54:15.184Z,2.10
2022-12-18T23:56:41.835Z,2.00
2022-12-18T23:59:08.503Z,2.00
